Terminal Aerodrome Forecast
Issued by NWS North Platte, NE

Home | Current Version | Previous Version | Text Only | Print | Product List | Glossary Off
Versions: 1 2 3 4 5 6 7 8 9 10 11 12 13 14 15 16 17

000
FTUS43 KLBF 231720
TAFVTN
TAF
KVTN 231720Z 2318/2418 33028G38KT P6SM FEW250
     FM232300 32016G25KT P6SM SCT200
     FM240300 32017G25KT P6SM FEW200=

USA.gov is the U.S. government's official web portal to all federal, state and local government web resources and services.